Capitol Logistics 3268


KMIA
Miami International Airport
Miami, Florida, US
KDAB
Daytona Beach International Airport
Daytona Beach, Florida, US

Activity Log

Date Flight Route Aircraft Duration
08/29/2020 CPX3268 PIONN V437 MLB V3 OAKIE SF34 1h 31m
01/03/2020 CPX3268 KMIA HEDLY2 HEDLY V437 MLB V3 SMYRA KDAB SF34 1h 00m
11/04/2019 CPX668 PIONN V437 MLB V3 OAKIE SF34 1h 06m

Route Details

Aircraft Information
Primary: Saab 340AF
Backup: Not Available
Route Data
Distance: 207nm
Sched. Duration: 1h 35m
Avg. Duration: 1h 12m (-23m)
Times Flown: 3
Recm'd Route: PIONN V437 MLB V3 OAKIE
Planned Altitude: 16,000ft
Origin Wx: KMIA 221753Z 10010G19KT 10SM SCT020 BKN070 BKN130 28/24 A2995 RMK AO2 PK WND 09026/1656 RAB1659E11 SLP141 P0005 60007 T02830239 10294 20233 58012
Dest. Wx: KDAB 221753Z 09008KT 10SM FEW025 SCT070 SCT200 29/23 A3004 RMK AO2 RAE01 SLP170 P0000 60000 T02940228 10294 20250 58012
Notes:

Financial History
Total Freight: 12,070lbs
Average Load: 4,023lbs/flt
Fuel Used: 2,913lbs
Avg. Fuel Used: 971lbs/flt
Fuel Expense: $3,583
Avg. Fuel Expense: $1,194
Avg. Fuel Cost: $1.23/lbs
Total Gross Income: $14,528
Pilot Pay: $687
Total Expenses: $1,725
Total Revenue: $8,406
Average Revenue: $4,842.73